Hlavní strana
METAR-TAF:

METAR-TAF

Letiště :

Nipawin, Saskatchewan, Kanada

zeměpisná šířka: 53-20N, zeměpisná délka: 104-00W, výška: 372 m

Aktuální stav počasí

Zpráva byla vytvořena před 57 minutami, v 18:00 UTC
Východní vítr 6 kt, proměnlivý mezi východoseverovýchodním a jihovýchodním
Teplota 26°C
Vlhkost vzduchu 34%
Tlak 1014 hPa
Viditelnost: 14.5 km
Jasno

METAR: CYBU 231800Z AUTO 10006KT 070V140 9SM CLR 26/09 A2994 RMK SLP144 DENSITY ALT 2700FT

Čas: 12:57 (18:57 UTC)


TAF: chybějící

Stav a předpovědi počasí z více než 4 000 letišť (zprávy METAR a TAF).

Červené a žluté tečky na mapě představují dostupné meteorologické stanice.

Když kurzor umístíte na tečku, zobrazí se název stanice.

Pak kliknutím zobrazíte stav a předpověď počasí.

Chcete-li změnit mapu, kliknutím na zelené tlačítko se znaménkem +mapu přiblížíte, kliknutím na zelené tlačítko se znaménkem – mapu oddálíte a kliknutím na zelené šipky přejdete na sousední mapy.


METAR-TAF: